Current Conditions

Updated: 06-May-2017 09:33 AM  
Summary / Temperature Wind Rain






Feels like: 59°F

1-hour difference
2.1°F 2.1°F warmer than last hour.

24-hour difference
13.0°F13.0°F colder than yesterday at this time.

  Today Yesterday
High: 66.4°F
12:00 AM
87.8°F
1:51 PM
Low: 55.4°F
6:33 AM
63.2°F
5:19 AM
Wind from WNW WNW
0.7
Gust:  1.0 mph
0 Beaufort - Calm

Today: 6.0 - 1:20 AM
Month: 7.0 mph - May 4
Rain Today: 0.00 in
Current Rate (/hr): 0.000 in
Max Rate (/hr):
Rain Yesterday: 0.00 in
Storm Rain: 0.00 in
This Month: 0.00 in
Season Total: 11.61 in
Last Rain Event: 17 days ago
Humidity / Barometer Sun / Moon
Humidity: 61 Decreased 2.0% in the last hour.
Dew Point: 45.8°F Increased 1.1°F in the last hour.
Barometer: 29.775 inHg  
Baro Trend: Steady
Sunrise: 5:57 AM
Sunset: 7:47 PM
Moonrise: 4:09 PM
Moonset: 3:58 AM
Sky Conditions UV Index
Summary: Overcast
Visibility: 10 miles
Clouds: Overcast @ 10,000 ft
KVIS - 8:56 AM PDT
Current: 1.0  Low 
Friday: 8.5  Very High 
Saturday: 8.8  Very High 
Air Quality Fire Danger
 Good 
Ozone 36 ppb
PM 2.5 7 μg/m3
9:30 AM PDT
Current: 8  Low 

Local Alerts Local Forecast
Local NWS Alerts
Today

Rain
Showers
High 70
Tonight

Rain
Showers
Low 48
Sun

Rain
Showers
High 68
Sun night

Isolated
T'Storms
Low 50
Mon

Rain
Showers
High 79
Mon night

Partly
Cloudy
Low 54
Tue

Partly
Cloudy
High 84

Local Radar Local Satellite Neighborhood Cam Sky Cam
Local Radar Local Satellite Neighborhood Cam Sky Cam


Nearby Personal Stations

Weather Underground PWS KCAPORTE11     Weather Underground PWS KCAPORTE8

Nearby Airport Stations

KPTV - Porterville, California, USA
Distance from station: SSW 4mi, 7km
Updated: Thu, 25-May-2017 11:56pm PDT

 Wind from SSW
Wind: SSW 8 mph , 13 km/h
Temperature: 57°F , 14°C
Dew Point: 46°F , 8°C
Humidity: 67%
Barometer: 29.85 inHg , 1010.8 hPa
Visibility: 10 miles , 16 km
2017/05/26 06:56 KPTV 260656Z AUTO 20007KT 10SM 14/08 A2985 RMK AO2 SLP117 T01390083 402720111 $
KVIS - Visalia, California, USA
Distance from station: NW 27mi, 43km
Updated: Thu, 25-May-2017 11:56pm PDT
Clear
Clear
 Wind from SE
Wind: SE 8 mph , 13 km/h
Temperature: 59°F , 15°C
Dew Point: 48°F , 9°C
Humidity: 68%
Barometer: 29.82 inHg , 1009.8 hPa
Clouds: Clear
Visibility: 10 miles , 16 km
2017/05/26 06:56 KVIS 260656Z AUTO 13007KT 10SM CLR 15/09 A2982 RMK AO2 SLP104 T01500089

Metar display script from Saratoga-Weather.org



Visitor Map